Terminal Aerodrome Forecast
Issued by NWS

Home | Current Version | Previous Version | Text Only | Print | Product List | Glossary On
Versions: 1 2 3 4 5 6 7 8 9 10 11 12
000
FTUS45 KREV 252300
TAFTRK
TAF
KTRK 252330Z 2600/2624 21010G20KT P6SM VCSH SCT025 BKN030
     FM261000 VRB02KT 1/4SM FZFG BKN002
     FM261600 32006KT P6SM FEW200
      AMD NOT SKED 2602/2612=

USA.gov is the U.S. government's official web portal to all federal, state and local government web resources and services.